sensor_id;sensor_type;location;lat;lon;timestamp;P1;durP1;ratioP1;P2;durP2;ratioP2
16954;SDS011;8594;52.052;8.354;2023-07-30T00:00:49;6.30;;;4.40;;
16954;SDS011;8594;52.052;8.354;2023-07-30T00:03:17;5.83;;;4.70;;
16954;SDS011;8594;52.052;8.354;2023-07-30T00:05:51;10.80;;;4.70;;
16954;SDS011;8594;52.052;8.354;2023-07-30T00:08:19;8.60;;;4.67;;
16954;SDS011;8594;52.052;8.354;2023-07-30T00:10:46;6.67;;;4.67;;
16954;SDS011;8594;52.052;8.354;2023-07-30T00:13:13;8.57;;;4.73;;
16954;SDS011;8594;52.052;8.354;2023-07-30T00:15:40;6.27;;;3.97;;
16954;SDS011;8594;52.052;8.354;2023-07-30T00:18:07;7.43;;;4.77;;
16954;SDS011;8594;52.052;8.354;2023-07-30T00:20:35;11.00;;;4.83;;
16954;SDS011;8594;52.052;8.354;2023-07-30T00:23:02;6.93;;;4.57;;
16954;SDS011;8594;52.052;8.354;2023-07-30T00:25:29;10.50;;;4.70;;
16954;SDS011;8594;52.052;8.354;2023-07-30T00:27:56;7.93;;;4.23;;
16954;SDS011;8594;52.052;8.354;2023-07-30T00:30:23;6.63;;;4.43;;
16954;SDS011;8594;52.052;8.354;2023-07-30T00:32:50;8.90;;;4.87;;
16954;SDS011;8594;52.052;8.354;2023-07-30T00:35:17;7.53;;;4.67;;
16954;SDS011;8594;52.052;8.354;2023-07-30T00:37:46;6.53;;;4.73;;
16954;SDS011;8594;52.052;8.354;2023-07-30T00:40:12;6.07;;;4.30;;
16954;SDS011;8594;52.052;8.354;2023-07-30T00:42:39;6.63;;;4.50;;
16954;SDS011;8594;52.052;8.354;2023-07-30T00:45:07;6.17;;;4.40;;
16954;SDS011;8594;52.052;8.354;2023-07-30T00:47:36;7.50;;;4.90;;
16954;SDS011;8594;52.052;8.354;2023-07-30T00:50:05;6.90;;;4.93;;
16954;SDS011;8594;52.052;8.354;2023-07-30T00:52:33;6.53;;;4.93;;
16954;SDS011;8594;52.052;8.354;2023-07-30T00:55:03;5.50;;;4.43;;
16954;SDS011;8594;52.052;8.354;2023-07-30T00:57:33;6.03;;;4.50;;
16954;SDS011;8594;52.052;8.354;2023-07-30T01:00:02;6.63;;;4.73;;
16954;SDS011;8594;52.052;8.354;2023-07-30T01:02:32;7.20;;;5.83;;
16954;SDS011;8594;52.052;8.354;2023-07-30T01:05:00;12.07;;;6.23;;
16954;SDS011;8594;52.052;8.354;2023-07-30T01:07:29;9.93;;;6.73;;
16954;SDS011;8594;52.052;8.354;2023-07-30T01:09:56;10.90;;;6.70;;
16954;SDS011;8594;52.052;8.354;2023-07-30T01:12:25;11.90;;;5.93;;
16954;SDS011;8594;52.052;8.354;2023-07-30T01:14:55;8.37;;;5.50;;
16954;SDS011;8594;52.052;8.354;2023-07-30T01:17:24;11.67;;;5.33;;
16954;SDS011;8594;52.052;8.354;2023-07-30T01:19:52;9.33;;;5.83;;
16954;SDS011;8594;52.052;8.354;2023-07-30T01:22:22;7.70;;;5.90;;
16954;SDS011;8594;52.052;8.354;2023-07-30T01:24:49;7.73;;;5.27;;
16954;SDS011;8594;52.052;8.354;2023-07-30T01:27:18;10.13;;;4.90;;
16954;SDS011;8594;52.052;8.354;2023-07-30T01:29:52;12.27;;;5.23;;
16954;SDS011;8594;52.052;8.354;2023-07-30T01:32:28;8.57;;;5.20;;
16954;SDS011;8594;52.052;8.354;2023-07-30T01:34:57;7.43;;;5.00;;
16954;SDS011;8594;52.052;8.354;2023-07-30T01:37:28;10.87;;;5.67;;
16954;SDS011;8594;52.052;8.354;2023-07-30T01:39:56;10.03;;;5.80;;
16954;SDS011;8594;52.052;8.354;2023-07-30T01:42:27;7.03;;;5.20;;
16954;SDS011;8594;52.052;8.354;2023-07-30T01:44:55;6.87;;;4.93;;
16954;SDS011;8594;52.052;8.354;2023-07-30T01:47:22;8.23;;;5.33;;
16954;SDS011;8594;52.052;8.354;2023-07-30T01:49:49;8.87;;;5.10;;
16954;SDS011;8594;52.052;8.354;2023-07-30T01:52:16;7.13;;;5.37;;
16954;SDS011;8594;52.052;8.354;2023-07-30T01:54:44;11.03;;;5.00;;
16954;SDS011;8594;52.052;8.354;2023-07-30T01:57:11;6.50;;;4.83;;
16954;SDS011;8594;52.052;8.354;2023-07-30T01:59:38;8.50;;;5.27;;
16954;SDS011;8594;52.052;8.354;2023-07-30T02:02:05;8.60;;;5.40;;
16954;SDS011;8594;52.052;8.354;2023-07-30T02:04:33;8.27;;;5.23;;
16954;SDS011;8594;52.052;8.354;2023-07-30T02:07:00;7.67;;;5.40;;
16954;SDS011;8594;52.052;8.354;2023-07-30T02:09:27;8.57;;;5.50;;
16954;SDS011;8594;52.052;8.354;2023-07-30T02:11:55;8.83;;;5.23;;
16954;SDS011;8594;52.052;8.354;2023-07-30T02:14:22;9.37;;;5.27;;
16954;SDS011;8594;52.052;8.354;2023-07-30T02:20:30;7.67;;;5.00;;
16954;SDS011;8594;52.052;8.354;2023-07-30T02:22:57;10.00;;;4.73;;
16954;SDS011;8594;52.052;8.354;2023-07-30T02:25:24;9.13;;;5.50;;
16954;SDS011;8594;52.052;8.354;2023-07-30T02:27:52;11.87;;;4.97;;
16954;SDS011;8594;52.052;8.354;2023-07-30T02:30:18;7.70;;;5.33;;
16954;SDS011;8594;52.052;8.354;2023-07-30T02:32:45;10.47;;;4.90;;
16954;SDS011;8594;52.052;8.354;2023-07-30T02:35:12;10.73;;;5.70;;
16954;SDS011;8594;52.052;8.354;2023-07-30T02:37:39;13.80;;;5.13;;
16954;SDS011;8594;52.052;8.354;2023-07-30T02:40:06;8.90;;;5.03;;
16954;SDS011;8594;52.052;8.354;2023-07-30T02:42:35;10.93;;;5.70;;
16954;SDS011;8594;52.052;8.354;2023-07-30T02:45:03;9.37;;;5.23;;
16954;SDS011;8594;52.052;8.354;2023-07-30T02:47:31;13.30;;;5.50;;
16954;SDS011;8594;52.052;8.354;2023-07-30T02:49:58;8.57;;;5.67;;
16954;SDS011;8594;52.052;8.354;2023-07-30T02:52:24;6.90;;;5.40;;
16954;SDS011;8594;52.052;8.354;2023-07-30T02:54:51;11.13;;;6.03;;
16954;SDS011;8594;52.052;8.354;2023-07-30T02:57:18;11.40;;;5.87;;
16954;SDS011;8594;52.052;8.354;2023-07-30T02:59:45;8.07;;;5.60;;
16954;SDS011;8594;52.052;8.354;2023-07-30T03:02:13;8.47;;;5.83;;
16954;SDS011;8594;52.052;8.354;2023-07-30T03:04:40;9.50;;;5.87;;
16954;SDS011;8594;52.052;8.354;2023-07-30T03:07:07;11.17;;;6.63;;
16954;SDS011;8594;52.052;8.354;2023-07-30T03:09:35;14.20;;;6.60;;
16954;SDS011;8594;52.052;8.354;2023-07-30T03:12:02;11.23;;;6.90;;
16954;SDS011;8594;52.052;8.354;2023-07-30T03:14:30;15.60;;;6.73;;
16954;SDS011;8594;52.052;8.354;2023-07-30T03:16:57;14.17;;;6.90;;
16954;SDS011;8594;52.052;8.354;2023-07-30T03:19:25;12.40;;;6.07;;
16954;SDS011;8594;52.052;8.354;2023-07-30T03:21:52;14.83;;;6.87;;
16954;SDS011;8594;52.052;8.354;2023-07-30T03:24:19;15.00;;;6.87;;
16954;SDS011;8594;52.052;8.354;2023-07-30T03:26:45;10.80;;;6.10;;
16954;SDS011;8594;52.052;8.354;2023-07-30T03:29:12;9.80;;;6.07;;
16954;SDS011;8594;52.052;8.354;2023-07-30T03:31:40;9.30;;;5.60;;
16954;SDS011;8594;52.052;8.354;2023-07-30T03:34:07;9.77;;;5.60;;
16954;SDS011;8594;52.052;8.354;2023-07-30T03:36:35;11.20;;;5.40;;
16954;SDS011;8594;52.052;8.354;2023-07-30T03:39:02;10.17;;;5.00;;
16954;SDS011;8594;52.052;8.354;2023-07-30T03:41:29;11.07;;;6.17;;
16954;SDS011;8594;52.052;8.354;2023-07-30T03:43:55;9.73;;;5.27;;
16954;SDS011;8594;52.052;8.354;2023-07-30T03:46:22;11.63;;;5.07;;
16954;SDS011;8594;52.052;8.354;2023-07-30T03:48:49;12.40;;;5.67;;
16954;SDS011;8594;52.052;8.354;2023-07-30T03:51:16;9.43;;;5.13;;
16954;SDS011;8594;52.052;8.354;2023-07-30T03:53:44;11.80;;;5.60;;
16954;SDS011;8594;52.052;8.354;2023-07-30T03:56:11;10.13;;;4.73;;
16954;SDS011;8594;52.052;8.354;2023-07-30T03:58:38;9.77;;;4.97;;
16954;SDS011;8594;52.052;8.354;2023-07-30T04:01:04;7.67;;;4.40;;
16954;SDS011;8594;52.052;8.354;2023-07-30T04:03:32;7.50;;;4.60;;
16954;SDS011;8594;52.052;8.354;2023-07-30T04:05:58;8.43;;;4.67;;
16954;SDS011;8594;52.052;8.354;2023-07-30T04:08:25;9.20;;;4.50;;
16954;SDS011;8594;52.052;8.354;2023-07-30T04:10:54;10.37;;;5.27;;
16954;SDS011;8594;52.052;8.354;2023-07-30T04:13:21;10.37;;;5.20;;
16954;SDS011;8594;52.052;8.354;2023-07-30T04:15:48;10.50;;;4.90;;
16954;SDS011;8594;52.052;8.354;2023-07-30T04:18:15;12.10;;;4.50;;
16954;SDS011;8594;52.052;8.354;2023-07-30T04:20:41;8.20;;;4.27;;
16954;SDS011;8594;52.052;8.354;2023-07-30T04:23:08;11.60;;;4.60;;
16954;SDS011;8594;52.052;8.354;2023-07-30T04:25:35;7.47;;;4.20;;
16954;SDS011;8594;52.052;8.354;2023-07-30T04:28:03;11.47;;;4.27;;
16954;SDS011;8594;52.052;8.354;2023-07-30T04:30:30;12.13;;;4.60;;
16954;SDS011;8594;52.052;8.354;2023-07-30T04:32:58;9.57;;;4.23;;
16954;SDS011;8594;52.052;8.354;2023-07-30T04:35:24;10.53;;;3.93;;
16954;SDS011;8594;52.052;8.354;2023-07-30T04:37:51;11.07;;;3.77;;
16954;SDS011;8594;52.052;8.354;2023-07-30T04:40:18;12.87;;;3.90;;
16954;SDS011;8594;52.052;8.354;2023-07-30T04:42:45;15.53;;;4.10;;
16954;SDS011;8594;52.052;8.354;2023-07-30T04:45:13;10.00;;;4.07;;
16954;SDS011;8594;52.052;8.354;2023-07-30T04:47:40;8.67;;;3.90;;
16954;SDS011;8594;52.052;8.354;2023-07-30T04:50:07;13.90;;;4.10;;
16954;SDS011;8594;52.052;8.354;2023-07-30T04:52:34;12.40;;;4.10;;
16954;SDS011;8594;52.052;8.354;2023-07-30T04:55:01;9.10;;;3.87;;
16954;SDS011;8594;52.052;8.354;2023-07-30T04:57:28;9.00;;;3.40;;
16954;SDS011;8594;52.052;8.354;2023-07-30T04:59:55;9.33;;;3.60;;
16954;SDS011;8594;52.052;8.354;2023-07-30T05:02:23;9.30;;;3.67;;
16954;SDS011;8594;52.052;8.354;2023-07-30T05:04:50;8.30;;;3.27;;
16954;SDS011;8594;52.052;8.354;2023-07-30T05:07:17;9.67;;;3.83;;
16954;SDS011;8594;52.052;8.354;2023-07-30T05:09:43;6.37;;;3.03;;
16954;SDS011;8594;52.052;8.354;2023-07-30T05:12:11;10.57;;;3.33;;
16954;SDS011;8594;52.052;8.354;2023-07-30T05:14:37;9.47;;;3.43;;
16954;SDS011;8594;52.052;8.354;2023-07-30T05:17:04;7.47;;;3.40;;
16954;SDS011;8594;52.052;8.354;2023-07-30T05:19:33;10.83;;;3.30;;
16954;SDS011;8594;52.052;8.354;2023-07-30T05:22:00;9.20;;;3.50;;
16954;SDS011;8594;52.052;8.354;2023-07-30T05:24:27;15.23;;;3.40;;
16954;SDS011;8594;52.052;8.354;2023-07-30T05:26:54;7.30;;;3.17;;
16954;SDS011;8594;52.052;8.354;2023-07-30T05:29:20;7.80;;;2.93;;
16954;SDS011;8594;52.052;8.354;2023-07-30T05:31:47;8.13;;;3.27;;
16954;SDS011;8594;52.052;8.354;2023-07-30T05:34:14;7.53;;;3.17;;
16954;SDS011;8594;52.052;8.354;2023-07-30T05:36:42;10.50;;;3.47;;
16954;SDS011;8594;52.052;8.354;2023-07-30T05:39:09;8.00;;;3.20;;
16954;SDS011;8594;52.052;8.354;2023-07-30T05:41:36;6.33;;;3.23;;
16954;SDS011;8594;52.052;8.354;2023-07-30T05:44:03;8.37;;;3.13;;
16954;SDS011;8594;52.052;8.354;2023-07-30T05:46:30;6.83;;;2.97;;
16954;SDS011;8594;52.052;8.354;2023-07-30T05:48:57;12.17;;;3.80;;
16954;SDS011;8594;52.052;8.354;2023-07-30T05:51:24;8.77;;;3.10;;
16954;SDS011;8594;52.052;8.354;2023-07-30T05:53:52;10.10;;;3.40;;
16954;SDS011;8594;52.052;8.354;2023-07-30T05:56:19;12.63;;;3.30;;
16954;SDS011;8594;52.052;8.354;2023-07-30T05:58:46;9.23;;;3.20;;
16954;SDS011;8594;52.052;8.354;2023-07-30T06:01:12;13.17;;;3.50;;
16954;SDS011;8594;52.052;8.354;2023-07-30T06:03:39;12.90;;;3.33;;
16954;SDS011;8594;52.052;8.354;2023-07-30T06:06:06;10.57;;;3.60;;
16954;SDS011;8594;52.052;8.354;2023-07-30T06:08:33;12.10;;;3.50;;
16954;SDS011;8594;52.052;8.354;2023-07-30T06:11:01;13.50;;;3.90;;
16954;SDS011;8594;52.052;8.354;2023-07-30T06:13:29;11.83;;;3.90;;
16954;SDS011;8594;52.052;8.354;2023-07-30T06:15:56;11.07;;;3.73;;
16954;SDS011;8594;52.052;8.354;2023-07-30T06:18:23;11.43;;;3.90;;
16954;SDS011;8594;52.052;8.354;2023-07-30T06:20:50;10.43;;;3.67;;
16954;SDS011;8594;52.052;8.354;2023-07-30T06:23:16;16.47;;;4.13;;
16954;SDS011;8594;52.052;8.354;2023-07-30T06:25:43;14.10;;;3.90;;
16954;SDS011;8594;52.052;8.354;2023-07-30T06:28:12;14.83;;;4.20;;
16954;SDS011;8594;52.052;8.354;2023-07-30T06:30:38;14.50;;;4.50;;
16954;SDS011;8594;52.052;8.354;2023-07-30T06:33:05;10.73;;;3.63;;
16954;SDS011;8594;52.052;8.354;2023-07-30T06:35:32;12.00;;;4.70;;
16954;SDS011;8594;52.052;8.354;2023-07-30T06:37:59;13.17;;;4.60;;
16954;SDS011;8594;52.052;8.354;2023-07-30T06:40:26;14.77;;;4.30;;
16954;SDS011;8594;52.052;8.354;2023-07-30T06:42:53;13.67;;;4.60;;
16954;SDS011;8594;52.052;8.354;2023-07-30T06:45:21;18.33;;;6.10;;
16954;SDS011;8594;52.052;8.354;2023-07-30T06:47:48;23.63;;;6.87;;
16954;SDS011;8594;52.052;8.354;2023-07-30T06:50:15;18.90;;;6.50;;
16954;SDS011;8594;52.052;8.354;2023-07-30T06:52:42;13.83;;;5.83;;
16954;SDS011;8594;52.052;8.354;2023-07-30T06:55:08;21.23;;;8.07;;
16954;SDS011;8594;52.052;8.354;2023-07-30T06:57:35;19.97;;;6.87;;
16954;SDS011;8594;52.052;8.354;2023-07-30T07:00:02;18.87;;;6.53;;
16954;SDS011;8594;52.052;8.354;2023-07-30T07:02:32;23.43;;;7.10;;
16954;SDS011;8594;52.052;8.354;2023-07-30T07:04:59;17.77;;;7.57;;
16954;SDS011;8594;52.052;8.354;2023-07-30T07:07:26;21.33;;;9.13;;
16954;SDS011;8594;52.052;8.354;2023-07-30T07:09:52;15.50;;;8.50;;
16954;SDS011;8594;52.052;8.354;2023-07-30T07:12:19;24.63;;;10.17;;
16954;SDS011;8594;52.052;8.354;2023-07-30T07:14:46;23.07;;;9.70;;
16954;SDS011;8594;52.052;8.354;2023-07-30T07:17:13;20.90;;;9.37;;
16954;SDS011;8594;52.052;8.354;2023-07-30T07:19:41;21.13;;;9.67;;
16954;SDS011;8594;52.052;8.354;2023-07-30T07:22:08;26.33;;;10.63;;
16954;SDS011;8594;52.052;8.354;2023-07-30T07:24:35;21.90;;;10.57;;
16954;SDS011;8594;52.052;8.354;2023-07-30T07:27:02;25.23;;;10.80;;
16954;SDS011;8594;52.052;8.354;2023-07-30T07:29:29;21.10;;;10.97;;
16954;SDS011;8594;52.052;8.354;2023-07-30T07:31:56;20.67;;;10.73;;
16954;SDS011;8594;52.052;8.354;2023-07-30T07:34:23;22.70;;;10.20;;
16954;SDS011;8594;52.052;8.354;2023-07-30T07:36:51;21.60;;;10.53;;
16954;SDS011;8594;52.052;8.354;2023-07-30T07:39:18;18.97;;;11.27;;
16954;SDS011;8594;52.052;8.354;2023-07-30T07:41:45;24.87;;;12.13;;
16954;SDS011;8594;52.052;8.354;2023-07-30T07:44:12;19.07;;;11.03;;
16954;SDS011;8594;52.052;8.354;2023-07-30T07:46:39;21.77;;;10.80;;
16954;SDS011;8594;52.052;8.354;2023-07-30T07:49:06;18.43;;;10.57;;
16954;SDS011;8594;52.052;8.354;2023-07-30T07:51:34;23.50;;;11.57;;
16954;SDS011;8594;52.052;8.354;2023-07-30T07:54:02;25.23;;;11.53;;
16954;SDS011;8594;52.052;8.354;2023-07-30T07:56:29;21.37;;;10.43;;
16954;SDS011;8594;52.052;8.354;2023-07-30T07:58:57;22.50;;;10.47;;
16954;SDS011;8594;52.052;8.354;2023-07-30T08:01:24;17.23;;;10.10;;
16954;SDS011;8594;52.052;8.354;2023-07-30T08:03:51;19.97;;;9.00;;
16954;SDS011;8594;52.052;8.354;2023-07-30T08:06:18;15.13;;;9.40;;
16954;SDS011;8594;52.052;8.354;2023-07-30T08:08:44;16.53;;;9.40;;
16954;SDS011;8594;52.052;8.354;2023-07-30T08:11:13;21.73;;;10.00;;
16954;SDS011;8594;52.052;8.354;2023-07-30T08:13:39;25.37;;;11.33;;
16954;SDS011;8594;52.052;8.354;2023-07-30T08:16:06;28.03;;;11.80;;
16954;SDS011;8594;52.052;8.354;2023-07-30T08:18:33;29.00;;;12.23;;
16954;SDS011;8594;52.052;8.354;2023-07-30T08:21:01;25.73;;;12.23;;
16954;SDS011;8594;52.052;8.354;2023-07-30T08:23:27;18.80;;;11.57;;
16954;SDS011;8594;52.052;8.354;2023-07-30T08:25:54;23.10;;;13.07;;
16954;SDS011;8594;52.052;8.354;2023-07-30T08:28:23;28.73;;;13.47;;
16954;SDS011;8594;52.052;8.354;2023-07-30T08:30:50;28.70;;;15.13;;
16954;SDS011;8594;52.052;8.354;2023-07-30T08:33:17;31.77;;;14.20;;
16954;SDS011;8594;52.052;8.354;2023-07-30T08:35:43;29.93;;;15.13;;
16954;SDS011;8594;52.052;8.354;2023-07-30T08:38:10;30.77;;;15.23;;
16954;SDS011;8594;52.052;8.354;2023-07-30T08:40:37;28.70;;;15.20;;
16954;SDS011;8594;52.052;8.354;2023-07-30T08:43:04;32.13;;;15.23;;
16954;SDS011;8594;52.052;8.354;2023-07-30T08:45:32;25.50;;;14.27;;
16954;SDS011;8594;52.052;8.354;2023-07-30T08:47:59;33.87;;;14.00;;
16954;SDS011;8594;52.052;8.354;2023-07-30T08:50:26;28.43;;;14.40;;
16954;SDS011;8594;52.052;8.354;2023-07-30T08:52:55;21.77;;;12.27;;
16954;SDS011;8594;52.052;8.354;2023-07-30T08:55:24;19.37;;;12.30;;
16954;SDS011;8594;52.052;8.354;2023-07-30T08:57:54;24.83;;;12.33;;
16954;SDS011;8594;52.052;8.354;2023-07-30T09:00:22;27.67;;;13.03;;
16954;SDS011;8594;52.052;8.354;2023-07-30T09:02:56;25.67;;;11.67;;
16954;SDS011;8594;52.052;8.354;2023-07-30T09:05:27;26.07;;;12.57;;
16954;SDS011;8594;52.052;8.354;2023-07-30T09:07:54;27.43;;;12.00;;
16954;SDS011;8594;52.052;8.354;2023-07-30T09:10:22;20.97;;;10.97;;
16954;SDS011;8594;52.052;8.354;2023-07-30T09:12:51;27.23;;;10.53;;
16954;SDS011;8594;52.052;8.354;2023-07-30T09:15:28;23.00;;;10.63;;
16954;SDS011;8594;52.052;8.354;2023-07-30T09:17:59;20.23;;;10.03;;
16954;SDS011;8594;52.052;8.354;2023-07-30T09:20:26;24.13;;;11.53;;
16954;SDS011;8594;52.052;8.354;2023-07-30T09:22:55;25.53;;;10.93;;
16954;SDS011;8594;52.052;8.354;2023-07-30T09:25:24;26.23;;;11.13;;
16954;SDS011;8594;52.052;8.354;2023-07-30T09:27:51;30.20;;;10.83;;
16954;SDS011;8594;52.052;8.354;2023-07-30T09:30:21;24.97;;;11.40;;
16954;SDS011;8594;52.052;8.354;2023-07-30T09:32:50;26.90;;;10.53;;
16954;SDS011;8594;52.052;8.354;2023-07-30T09:35:20;25.50;;;9.80;;
16954;SDS011;8594;52.052;8.354;2023-07-30T09:37:50;23.63;;;10.87;;
16954;SDS011;8594;52.052;8.354;2023-07-30T09:40:30;20.10;;;10.23;;
16954;SDS011;8594;52.052;8.354;2023-07-30T09:42:59;21.57;;;9.77;;
16954;SDS011;8594;52.052;8.354;2023-07-30T09:45:26;22.80;;;9.87;;
16954;SDS011;8594;52.052;8.354;2023-07-30T09:47:54;19.53;;;9.93;;
16954;SDS011;8594;52.052;8.354;2023-07-30T09:50:24;26.33;;;10.90;;
16954;SDS011;8594;52.052;8.354;2023-07-30T09:52:51;27.93;;;10.27;;
16954;SDS011;8594;52.052;8.354;2023-07-30T09:55:20;20.63;;;9.17;;
16954;SDS011;8594;52.052;8.354;2023-07-30T09:57:47;25.13;;;9.80;;
16954;SDS011;8594;52.052;8.354;2023-07-30T10:00:14;24.40;;;10.77;;
16954;SDS011;8594;52.052;8.354;2023-07-30T10:02:43;20.30;;;10.13;;
16954;SDS011;8594;52.052;8.354;2023-07-30T10:05:14;26.03;;;10.70;;
16954;SDS011;8594;52.052;8.354;2023-07-30T10:07:47;23.27;;;11.03;;
16954;SDS011;8594;52.052;8.354;2023-07-30T10:10:21;23.87;;;13.90;;
16954;SDS011;8594;52.052;8.354;2023-07-30T10:12:50;23.23;;;12.90;;
16954;SDS011;8594;52.052;8.354;2023-07-30T10:15:21;28.20;;;14.60;;
16954;SDS011;8594;52.052;8.354;2023-07-30T10:17:48;36.73;;;15.47;;
16954;SDS011;8594;52.052;8.354;2023-07-30T10:20:20;33.93;;;15.90;;
16954;SDS011;8594;52.052;8.354;2023-07-30T10:22:54;31.60;;;15.53;;
16954;SDS011;8594;52.052;8.354;2023-07-30T10:25:26;28.43;;;14.77;;
16954;SDS011;8594;52.052;8.354;2023-07-30T10:27:56;24.10;;;13.43;;
16954;SDS011;8594;52.052;8.354;2023-07-30T10:30:29;30.33;;;14.33;;
16954;SDS011;8594;52.052;8.354;2023-07-30T10:32:58;24.47;;;13.67;;
16954;SDS011;8594;52.052;8.354;2023-07-30T10:35:34;26.67;;;13.87;;
16954;SDS011;8594;52.052;8.354;2023-07-30T10:38:15;30.27;;;13.67;;
16954;SDS011;8594;52.052;8.354;2023-07-30T10:43:35;25.70;;;12.43;;
16954;SDS011;8594;52.052;8.354;2023-07-30T10:46:05;19.63;;;12.13;;
16954;SDS011;8594;52.052;8.354;2023-07-30T10:48:33;25.87;;;11.47;;
16954;SDS011;8594;52.052;8.354;2023-07-30T10:51:02;20.37;;;11.20;;
16954;SDS011;8594;52.052;8.354;2023-07-30T10:53:32;18.13;;;11.50;;
16954;SDS011;8594;52.052;8.354;2023-07-30T10:56:01;23.40;;;11.83;;
16954;SDS011;8594;52.052;8.354;2023-07-30T10:58:30;21.47;;;11.53;;
16954;SDS011;8594;52.052;8.354;2023-07-30T11:00:58;23.20;;;10.90;;
16954;SDS011;8594;52.052;8.354;2023-07-30T11:03:28;17.97;;;9.37;;
16954;SDS011;8594;52.052;8.354;2023-07-30T11:05:56;15.77;;;7.73;;
16954;SDS011;8594;52.052;8.354;2023-07-30T11:08:33;14.17;;;8.17;;
16954;SDS011;8594;52.052;8.354;2023-07-30T11:11:01;15.53;;;7.60;;
16954;SDS011;8594;52.052;8.354;2023-07-30T11:13:29;16.33;;;7.23;;
16954;SDS011;8594;52.052;8.354;2023-07-30T11:16:00;16.23;;;6.83;;
16954;SDS011;8594;52.052;8.354;2023-07-30T11:18:27;14.50;;;7.17;;
16954;SDS011;8594;52.052;8.354;2023-07-30T11:21:02;15.30;;;7.40;;
16954;SDS011;8594;52.052;8.354;2023-07-30T11:23:29;16.13;;;6.20;;
16954;SDS011;8594;52.052;8.354;2023-07-30T11:25:58;15.37;;;6.20;;
16954;SDS011;8594;52.052;8.354;2023-07-30T11:28:27;10.03;;;5.57;;
16954;SDS011;8594;52.052;8.354;2023-07-30T11:30:55;13.47;;;6.10;;
16954;SDS011;8594;52.052;8.354;2023-07-30T11:33:25;13.70;;;5.13;;
16954;SDS011;8594;52.052;8.354;2023-07-30T11:35:53;12.87;;;5.50;;
16954;SDS011;8594;52.052;8.354;2023-07-30T11:38:21;8.47;;;4.60;;
16954;SDS011;8594;52.052;8.354;2023-07-30T11:40:48;8.93;;;3.80;;
16954;SDS011;8594;52.052;8.354;2023-07-30T11:43:18;11.00;;;3.97;;
16954;SDS011;8594;52.052;8.354;2023-07-30T11:45:46;12.70;;;3.30;;
16954;SDS011;8594;52.052;8.354;2023-07-30T11:48:13;7.93;;;3.30;;
16954;SDS011;8594;52.052;8.354;2023-07-30T11:50:46;10.80;;;3.70;;
16954;SDS011;8594;52.052;8.354;2023-07-30T11:53:15;9.90;;;3.70;;
16954;SDS011;8594;52.052;8.354;2023-07-30T11:55:43;13.87;;;4.03;;
16954;SDS011;8594;52.052;8.354;2023-07-30T11:58:11;8.37;;;3.03;;
16954;SDS011;8594;52.052;8.354;2023-07-30T12:00:40;10.83;;;3.97;;
16954;SDS011;8594;52.052;8.354;2023-07-30T12:03:10;9.23;;;4.07;;
16954;SDS011;8594;52.052;8.354;2023-07-30T12:05:38;9.33;;;3.70;;
16954;SDS011;8594;52.052;8.354;2023-07-30T12:08:06;9.40;;;3.03;;
16954;SDS011;8594;52.052;8.354;2023-07-30T12:10:44;8.93;;;2.80;;
16954;SDS011;8594;52.052;8.354;2023-07-30T12:13:17;9.67;;;2.80;;
16954;SDS011;8594;52.052;8.354;2023-07-30T12:15:51;7.63;;;2.77;;
16954;SDS011;8594;52.052;8.354;2023-07-30T12:18:19;6.07;;;2.47;;
16954;SDS011;8594;52.052;8.354;2023-07-30T12:20:49;10.60;;;3.00;;
16954;SDS011;8594;52.052;8.354;2023-07-30T12:23:16;6.57;;;2.90;;
16954;SDS011;8594;52.052;8.354;2023-07-30T12:25:44;6.97;;;2.90;;
16954;SDS011;8594;52.052;8.354;2023-07-30T12:28:11;7.30;;;2.30;;
16954;SDS011;8594;52.052;8.354;2023-07-30T12:30:39;7.67;;;2.67;;
16954;SDS011;8594;52.052;8.354;2023-07-30T12:33:07;6.87;;;2.47;;
16954;SDS011;8594;52.052;8.354;2023-07-30T12:35:34;7.13;;;2.33;;
16954;SDS011;8594;52.052;8.354;2023-07-30T12:38:01;6.73;;;2.60;;
16954;SDS011;8594;52.052;8.354;2023-07-30T12:40:28;8.17;;;2.53;;
16954;SDS011;8594;52.052;8.354;2023-07-30T12:43:00;9.17;;;2.80;;
16954;SDS011;8594;52.052;8.354;2023-07-30T12:45:28;7.70;;;2.40;;
16954;SDS011;8594;52.052;8.354;2023-07-30T12:47:56;6.97;;;1.83;;
16954;SDS011;8594;52.052;8.354;2023-07-30T12:50:24;9.53;;;2.40;;
16954;SDS011;8594;52.052;8.354;2023-07-30T12:52:51;7.70;;;2.30;;
16954;SDS011;8594;52.052;8.354;2023-07-30T12:55:18;7.40;;;2.60;;
16954;SDS011;8594;52.052;8.354;2023-07-30T12:57:46;8.53;;;2.70;;
16954;SDS011;8594;52.052;8.354;2023-07-30T13:00:13;7.87;;;2.67;;
16954;SDS011;8594;52.052;8.354;2023-07-30T13:02:42;7.73;;;2.83;;
16954;SDS011;8594;52.052;8.354;2023-07-30T13:05:09;7.60;;;2.47;;
16954;SDS011;8594;52.052;8.354;2023-07-30T13:07:39;6.97;;;2.30;;
16954;SDS011;8594;52.052;8.354;2023-07-30T13:10:07;6.90;;;2.27;;
16954;SDS011;8594;52.052;8.354;2023-07-30T13:12:35;10.00;;;2.93;;
16954;SDS011;8594;52.052;8.354;2023-07-30T13:15:02;9.90;;;2.27;;
16954;SDS011;8594;52.052;8.354;2023-07-30T13:17:30;16.57;;;3.03;;
16954;SDS011;8594;52.052;8.354;2023-07-30T13:19:57;9.27;;;2.43;;
16954;SDS011;8594;52.052;8.354;2023-07-30T13:22:24;6.93;;;2.17;;
16954;SDS011;8594;52.052;8.354;2023-07-30T13:24:52;10.50;;;2.10;;
16954;SDS011;8594;52.052;8.354;2023-07-30T13:27:19;7.60;;;2.03;;
16954;SDS011;8594;52.052;8.354;2023-07-30T13:29:46;9.27;;;1.97;;
16954;SDS011;8594;52.052;8.354;2023-07-30T13:32:14;9.43;;;2.20;;
16954;SDS011;8594;52.052;8.354;2023-07-30T13:34:41;10.30;;;2.57;;
16954;SDS011;8594;52.052;8.354;2023-07-30T13:37:08;6.90;;;1.80;;
16954;SDS011;8594;52.052;8.354;2023-07-30T13:39:34;4.97;;;1.43;;
16954;SDS011;8594;52.052;8.354;2023-07-30T13:42:03;5.97;;;2.13;;
16954;SDS011;8594;52.052;8.354;2023-07-30T13:44:30;5.90;;;1.57;;
16954;SDS011;8594;52.052;8.354;2023-07-30T13:46:57;6.80;;;1.80;;
16954;SDS011;8594;52.052;8.354;2023-07-30T13:49:24;8.97;;;1.80;;
16954;SDS011;8594;52.052;8.354;2023-07-30T13:51:51;3.93;;;1.33;;
16954;SDS011;8594;52.052;8.354;2023-07-30T13:54:18;3.97;;;1.33;;
16954;SDS011;8594;52.052;8.354;2023-07-30T13:56:44;11.90;;;2.50;;
16954;SDS011;8594;52.052;8.354;2023-07-30T13:59:13;7.20;;;1.60;;
16954;SDS011;8594;52.052;8.354;2023-07-30T14:01:39;7.73;;;1.70;;
16954;SDS011;8594;52.052;8.354;2023-07-30T14:04:06;4.77;;;1.40;;
16954;SDS011;8594;52.052;8.354;2023-07-30T14:06:33;6.77;;;1.47;;
16954;SDS011;8594;52.052;8.354;2023-07-30T14:09:01;6.90;;;1.40;;
16954;SDS011;8594;52.052;8.354;2023-07-30T14:11:29;5.57;;;1.63;;
16954;SDS011;8594;52.052;8.354;2023-07-30T14:13:57;5.27;;;1.40;;
16954;SDS011;8594;52.052;8.354;2023-07-30T14:16:25;5.50;;;1.60;;
16954;SDS011;8594;52.052;8.354;2023-07-30T14:18:52;5.07;;;1.70;;
16954;SDS011;8594;52.052;8.354;2023-07-30T14:21:19;3.90;;;1.50;;
16954;SDS011;8594;52.052;8.354;2023-07-30T14:23:46;7.90;;;1.60;;
16954;SDS011;8594;52.052;8.354;2023-07-30T14:26:13;5.13;;;1.80;;
16954;SDS011;8594;52.052;8.354;2023-07-30T14:28:40;6.37;;;1.70;;
16954;SDS011;8594;52.052;8.354;2023-07-30T14:31:07;8.93;;;1.73;;
16954;SDS011;8594;52.052;8.354;2023-07-30T14:33:35;6.07;;;1.53;;
16954;SDS011;8594;52.052;8.354;2023-07-30T14:36:03;6.27;;;1.67;;
16954;SDS011;8594;52.052;8.354;2023-07-30T14:38:30;4.67;;;1.63;;
16954;SDS011;8594;52.052;8.354;2023-07-30T14:40:59;4.10;;;1.60;;
16954;SDS011;8594;52.052;8.354;2023-07-30T14:43:27;6.10;;;1.70;;
16954;SDS011;8594;52.052;8.354;2023-07-30T14:45:54;9.53;;;1.70;;
16954;SDS011;8594;52.052;8.354;2023-07-30T14:48:21;7.90;;;1.87;;
16954;SDS011;8594;52.052;8.354;2023-07-30T14:50:50;6.53;;;1.90;;
16954;SDS011;8594;52.052;8.354;2023-07-30T14:53:16;3.67;;;1.37;;
16954;SDS011;8594;52.052;8.354;2023-07-30T14:55:43;10.20;;;1.60;;
16954;SDS011;8594;52.052;8.354;2023-07-30T14:58:10;3.50;;;1.40;;
16954;SDS011;8594;52.052;8.354;2023-07-30T15:00:38;5.17;;;1.50;;